sensor_id;sensor_type;location;lat;lon;timestamp;temperature;humidity
60027;DHT22;45891;53.006;6.512;2023-03-21T00:01:03;9.20;99.90
60027;DHT22;45891;53.006;6.512;2023-03-21T00:03:30;9.20;99.90
60027;DHT22;45891;53.006;6.512;2023-03-21T00:05:56;9.20;99.90
60027;DHT22;45891;53.006;6.512;2023-03-21T00:08:23;9.20;99.90
60027;DHT22;45891;53.006;6.512;2023-03-21T00:10:59;9.20;99.90
60027;DHT22;45891;53.006;6.512;2023-03-21T00:13:26;9.20;99.90
60027;DHT22;45891;53.006;6.512;2023-03-21T00:15:52;9.20;99.90
60027;DHT22;45891;53.006;6.512;2023-03-21T00:18:20;9.20;99.90
60027;DHT22;45891;53.006;6.512;2023-03-21T00:20:57;9.20;99.90
60027;DHT22;45891;53.006;6.512;2023-03-21T00:23:27;9.20;99.90
60027;DHT22;45891;53.006;6.512;2023-03-21T00:25:53;9.20;99.90
60027;DHT22;45891;53.006;6.512;2023-03-21T00:28:19;9.20;99.90
60027;DHT22;45891;53.006;6.512;2023-03-21T00:30:45;9.20;99.90
60027;DHT22;45891;53.006;6.512;2023-03-21T00:33:11;9.20;99.90
60027;DHT22;45891;53.006;6.512;2023-03-21T00:35:38;9.20;99.90
60027;DHT22;45891;53.006;6.512;2023-03-21T00:38:07;9.20;99.90
60027;DHT22;45891;53.006;6.512;2023-03-21T00:40:32;9.20;99.90
60027;DHT22;45891;53.006;6.512;2023-03-21T00:42:58;9.20;99.90
60027;DHT22;45891;53.006;6.512;2023-03-21T00:45:25;9.20;99.90
60027;DHT22;45891;53.006;6.512;2023-03-21T00:47:51;9.20;99.90
60027;DHT22;45891;53.006;6.512;2023-03-21T00:50:16;9.20;99.90
60027;DHT22;45891;53.006;6.512;2023-03-21T00:52:43;9.20;99.90
60027;DHT22;45891;53.006;6.512;2023-03-21T00:55:18;9.20;99.90
60027;DHT22;45891;53.006;6.512;2023-03-21T00:57:44;9.20;99.90
60027;DHT22;45891;53.006;6.512;2023-03-21T01:00:11;9.20;99.90
60027;DHT22;45891;53.006;6.512;2023-03-21T01:02:38;9.20;99.90
60027;DHT22;45891;53.006;6.512;2023-03-21T01:05:08;9.20;99.90
60027;DHT22;45891;53.006;6.512;2023-03-21T01:07:34;9.20;99.90
60027;DHT22;45891;53.006;6.512;2023-03-21T01:10:00;9.20;99.90
60027;DHT22;45891;53.006;6.512;2023-03-21T01:12:26;9.20;99.90
60027;DHT22;45891;53.006;6.512;2023-03-21T01:14:53;9.20;99.90
60027;DHT22;45891;53.006;6.512;2023-03-21T01:17:18;9.20;99.90
60027;DHT22;45891;53.006;6.512;2023-03-21T01:19:44;9.20;99.90
60027;DHT22;45891;53.006;6.512;2023-03-21T01:22:11;9.20;99.90
60027;DHT22;45891;53.006;6.512;2023-03-21T01:24:36;9.20;99.90
60027;DHT22;45891;53.006;6.512;2023-03-21T01:27:02;9.20;99.90
60027;DHT22;45891;53.006;6.512;2023-03-21T01:29:28;9.20;99.90
60027;DHT22;45891;53.006;6.512;2023-03-21T01:31:55;9.20;99.90
60027;DHT22;45891;53.006;6.512;2023-03-21T01:34:20;9.20;99.90
60027;DHT22;45891;53.006;6.512;2023-03-21T01:36:46;9.20;99.90
60027;DHT22;45891;53.006;6.512;2023-03-21T01:39:12;9.30;99.90
60027;DHT22;45891;53.006;6.512;2023-03-21T01:41:39;9.30;99.90
60027;DHT22;45891;53.006;6.512;2023-03-21T01:44:05;9.20;99.90
60027;DHT22;45891;53.006;6.512;2023-03-21T01:46:45;9.20;99.90
60027;DHT22;45891;53.006;6.512;2023-03-21T01:51:45;9.20;99.90
60027;DHT22;45891;53.006;6.512;2023-03-21T01:54:14;9.20;99.90
60027;DHT22;45891;53.006;6.512;2023-03-21T01:56:41;9.30;99.90
60027;DHT22;45891;53.006;6.512;2023-03-21T01:59:11;9.30;99.90
60027;DHT22;45891;53.006;6.512;2023-03-21T02:01:39;9.20;99.90
60027;DHT22;45891;53.006;6.512;2023-03-21T02:04:06;9.30;99.90
60027;DHT22;45891;53.006;6.512;2023-03-21T02:09:01;9.20;99.90
60027;DHT22;45891;53.006;6.512;2023-03-21T02:11:29;9.20;99.90
60027;DHT22;45891;53.006;6.512;2023-03-21T02:13:57;9.30;99.90
60027;DHT22;45891;53.006;6.512;2023-03-21T02:16:28;9.30;99.90
60027;DHT22;45891;53.006;6.512;2023-03-21T02:21:47;9.20;99.90
60027;DHT22;45891;53.006;6.512;2023-03-21T02:29:46;9.30;99.90
60027;DHT22;45891;53.006;6.512;2023-03-21T02:37:31;9.30;99.90
60027;DHT22;45891;53.006;6.512;2023-03-21T02:40:09;9.30;99.90
60027;DHT22;45891;53.006;6.512;2023-03-21T02:45:24;9.30;99.90
60027;DHT22;45891;53.006;6.512;2023-03-21T02:47:52;9.30;99.90
60027;DHT22;45891;53.006;6.512;2023-03-21T02:50:20;9.20;99.90
60027;DHT22;45891;53.006;6.512;2023-03-21T02:52:49;9.30;99.90
60027;DHT22;45891;53.006;6.512;2023-03-21T02:55:21;9.30;99.90
60027;DHT22;45891;53.006;6.512;2023-03-21T02:57:48;9.30;99.90
60027;DHT22;45891;53.006;6.512;2023-03-21T03:00:17;9.30;99.90
60027;DHT22;45891;53.006;6.512;2023-03-21T03:02:43;9.30;99.90
60027;DHT22;45891;53.006;6.512;2023-03-21T03:05:13;9.30;99.90
60027;DHT22;45891;53.006;6.512;2023-03-21T03:07:47;9.30;99.90
60027;DHT22;45891;53.006;6.512;2023-03-21T03:13:02;9.20;99.90
60027;DHT22;45891;53.006;6.512;2023-03-21T03:16:06;9.30;99.90
60027;DHT22;45891;53.006;6.512;2023-03-21T03:23:42;9.30;99.90
60027;DHT22;45891;53.006;6.512;2023-03-21T03:26:20;9.30;99.90
60027;DHT22;45891;53.006;6.512;2023-03-21T03:28:49;9.30;99.90
60027;DHT22;45891;53.006;6.512;2023-03-21T03:31:18;9.30;99.90
60027;DHT22;45891;53.006;6.512;2023-03-21T03:33:48;9.30;99.90
60027;DHT22;45891;53.006;6.512;2023-03-21T03:36:17;9.30;99.90
60027;DHT22;45891;53.006;6.512;2023-03-21T03:38:43;9.30;99.90
60027;DHT22;45891;53.006;6.512;2023-03-21T03:41:11;9.30;99.90
60027;DHT22;45891;53.006;6.512;2023-03-21T03:43:50;9.30;99.90
60027;DHT22;45891;53.006;6.512;2023-03-21T03:46:22;9.30;99.90
60027;DHT22;45891;53.006;6.512;2023-03-21T03:48:53;9.30;99.90
60027;DHT22;45891;53.006;6.512;2023-03-21T03:53:52;9.30;99.90
60027;DHT22;45891;53.006;6.512;2023-03-21T03:56:19;9.30;99.90
60027;DHT22;45891;53.006;6.512;2023-03-21T03:58:45;9.30;99.90
60027;DHT22;45891;53.006;6.512;2023-03-21T04:01:11;9.30;99.90
60027;DHT22;45891;53.006;6.512;2023-03-21T04:03:39;9.30;99.90
60027;DHT22;45891;53.006;6.512;2023-03-21T04:06:05;9.40;99.90
60027;DHT22;45891;53.006;6.512;2023-03-21T04:08:31;9.30;99.90
60027;DHT22;45891;53.006;6.512;2023-03-21T04:10:57;9.40;99.90
60027;DHT22;45891;53.006;6.512;2023-03-21T04:13:23;9.30;99.90
60027;DHT22;45891;53.006;6.512;2023-03-21T04:15:49;9.30;99.90
60027;DHT22;45891;53.006;6.512;2023-03-21T04:18:15;9.30;99.90
60027;DHT22;45891;53.006;6.512;2023-03-21T04:20:41;9.30;99.90
60027;DHT22;45891;53.006;6.512;2023-03-21T04:23:09;9.40;99.90
60027;DHT22;45891;53.006;6.512;2023-03-21T04:25:35;9.30;99.90
60027;DHT22;45891;53.006;6.512;2023-03-21T04:28:01;9.30;99.90
60027;DHT22;45891;53.006;6.512;2023-03-21T04:30:27;9.40;99.90
60027;DHT22;45891;53.006;6.512;2023-03-21T04:32:53;9.30;99.90
60027;DHT22;45891;53.006;6.512;2023-03-21T04:35:21;9.30;99.90
60027;DHT22;45891;53.006;6.512;2023-03-21T04:37:48;9.30;99.90
60027;DHT22;45891;53.006;6.512;2023-03-21T04:40:14;9.30;99.90
60027;DHT22;45891;53.006;6.512;2023-03-21T04:42:42;9.40;99.90
60027;DHT22;45891;53.006;6.512;2023-03-21T04:45:08;9.30;99.90
60027;DHT22;45891;53.006;6.512;2023-03-21T04:47:35;9.30;99.90
60027;DHT22;45891;53.006;6.512;2023-03-21T04:50:01;9.40;99.90
60027;DHT22;45891;53.006;6.512;2023-03-21T04:52:27;9.30;99.90
60027;DHT22;45891;53.006;6.512;2023-03-21T04:54:53;9.30;99.90
60027;DHT22;45891;53.006;6.512;2023-03-21T04:57:19;9.30;99.90
60027;DHT22;45891;53.006;6.512;2023-03-21T04:59:45;9.30;99.90
60027;DHT22;45891;53.006;6.512;2023-03-21T05:02:11;9.30;99.90
60027;DHT22;45891;53.006;6.512;2023-03-21T05:04:38;9.40;99.90
60027;DHT22;45891;53.006;6.512;2023-03-21T05:07:04;9.30;99.90
60027;DHT22;45891;53.006;6.512;2023-03-21T05:09:31;9.30;99.90
60027;DHT22;45891;53.006;6.512;2023-03-21T05:11:57;9.30;99.90
60027;DHT22;45891;53.006;6.512;2023-03-21T05:14:23;9.30;99.90
60027;DHT22;45891;53.006;6.512;2023-03-21T05:16:50;9.30;99.90
60027;DHT22;45891;53.006;6.512;2023-03-21T05:19:22;9.30;99.90
60027;DHT22;45891;53.006;6.512;2023-03-21T05:21:48;9.30;99.90
60027;DHT22;45891;53.006;6.512;2023-03-21T05:24:15;9.30;99.90
60027;DHT22;45891;53.006;6.512;2023-03-21T05:26:42;9.30;99.90
60027;DHT22;45891;53.006;6.512;2023-03-21T05:29:08;9.30;99.90
60027;DHT22;45891;53.006;6.512;2023-03-21T05:31:34;9.30;99.90
60027;DHT22;45891;53.006;6.512;2023-03-21T05:34:01;9.30;99.90
60027;DHT22;45891;53.006;6.512;2023-03-21T05:36:27;9.30;99.90
60027;DHT22;45891;53.006;6.512;2023-03-21T05:38:53;9.30;99.90
60027;DHT22;45891;53.006;6.512;2023-03-21T05:41:19;9.30;99.90
60027;DHT22;45891;53.006;6.512;2023-03-21T05:43:46;9.30;99.90
60027;DHT22;45891;53.006;6.512;2023-03-21T05:46:12;9.30;99.90
60027;DHT22;45891;53.006;6.512;2023-03-21T05:48:38;9.30;99.90
60027;DHT22;45891;53.006;6.512;2023-03-21T05:51:04;9.30;99.90
60027;DHT22;45891;53.006;6.512;2023-03-21T05:53:30;9.30;99.90
60027;DHT22;45891;53.006;6.512;2023-03-21T05:55:56;9.30;99.90
60027;DHT22;45891;53.006;6.512;2023-03-21T05:58:22;9.30;99.90
60027;DHT22;45891;53.006;6.512;2023-03-21T06:00:48;9.30;99.90
60027;DHT22;45891;53.006;6.512;2023-03-21T06:03:14;9.30;99.90
60027;DHT22;45891;53.006;6.512;2023-03-21T06:05:40;9.30;99.90
60027;DHT22;45891;53.006;6.512;2023-03-21T06:08:06;9.30;99.90
60027;DHT22;45891;53.006;6.512;2023-03-21T06:10:32;9.30;99.90
60027;DHT22;45891;53.006;6.512;2023-03-21T06:12:58;9.30;99.90
60027;DHT22;45891;53.006;6.512;2023-03-21T06:15:24;9.30;99.90
60027;DHT22;45891;53.006;6.512;2023-03-21T06:17:51;9.30;99.90
60027;DHT22;45891;53.006;6.512;2023-03-21T06:20:17;9.30;99.90
60027;DHT22;45891;53.006;6.512;2023-03-21T06:22:43;9.30;99.90
60027;DHT22;45891;53.006;6.512;2023-03-21T06:25:09;9.30;99.90
60027;DHT22;45891;53.006;6.512;2023-03-21T06:27:35;9.30;99.90
60027;DHT22;45891;53.006;6.512;2023-03-21T06:30:02;9.30;99.90
60027;DHT22;45891;53.006;6.512;2023-03-21T06:32:28;9.30;99.90
60027;DHT22;45891;53.006;6.512;2023-03-21T06:34:54;9.30;99.90
60027;DHT22;45891;53.006;6.512;2023-03-21T06:37:20;9.30;99.90
60027;DHT22;45891;53.006;6.512;2023-03-21T06:39:46;9.30;99.90
60027;DHT22;45891;53.006;6.512;2023-03-21T06:42:12;9.30;99.90
60027;DHT22;45891;53.006;6.512;2023-03-21T06:44:38;9.30;99.90
60027;DHT22;45891;53.006;6.512;2023-03-21T06:47:04;9.30;99.90
60027;DHT22;45891;53.006;6.512;2023-03-21T06:49:30;9.40;99.90
60027;DHT22;45891;53.006;6.512;2023-03-21T06:51:56;9.40;99.90
60027;DHT22;45891;53.006;6.512;2023-03-21T06:54:22;9.40;99.90
60027;DHT22;45891;53.006;6.512;2023-03-21T06:56:48;9.40;99.90
60027;DHT22;45891;53.006;6.512;2023-03-21T06:59:14;9.40;99.90
60027;DHT22;45891;53.006;6.512;2023-03-21T07:01:40;9.40;99.90
60027;DHT22;45891;53.006;6.512;2023-03-21T07:04:07;9.40;99.90
60027;DHT22;45891;53.006;6.512;2023-03-21T07:06:33;9.40;99.90
60027;DHT22;45891;53.006;6.512;2023-03-21T07:09:00;9.40;99.90
60027;DHT22;45891;53.006;6.512;2023-03-21T07:11:27;9.50;99.90
60027;DHT22;45891;53.006;6.512;2023-03-21T07:13:53;9.50;99.90
60027;DHT22;45891;53.006;6.512;2023-03-21T07:16:19;9.50;99.90
60027;DHT22;45891;53.006;6.512;2023-03-21T07:18:46;9.50;99.90
60027;DHT22;45891;53.006;6.512;2023-03-21T07:21:12;9.50;99.90
60027;DHT22;45891;53.006;6.512;2023-03-21T07:23:38;9.50;99.90
60027;DHT22;45891;53.006;6.512;2023-03-21T07:26:04;9.50;99.90
60027;DHT22;45891;53.006;6.512;2023-03-21T07:28:31;9.50;99.90
60027;DHT22;45891;53.006;6.512;2023-03-21T07:30:58;9.50;99.90
60027;DHT22;45891;53.006;6.512;2023-03-21T07:33:25;9.60;99.90
60027;DHT22;45891;53.006;6.512;2023-03-21T07:35:52;9.50;99.90
60027;DHT22;45891;53.006;6.512;2023-03-21T07:38:19;9.50;99.90
60027;DHT22;45891;53.006;6.512;2023-03-21T07:40:46;9.50;99.90
60027;DHT22;45891;53.006;6.512;2023-03-21T07:43:12;9.50;99.90
60027;DHT22;45891;53.006;6.512;2023-03-21T07:45:38;9.50;99.90
60027;DHT22;45891;53.006;6.512;2023-03-21T07:48:04;9.60;99.90
60027;DHT22;45891;53.006;6.512;2023-03-21T07:50:30;9.50;99.90
60027;DHT22;45891;53.006;6.512;2023-03-21T07:52:56;9.50;99.90
60027;DHT22;45891;53.006;6.512;2023-03-21T07:55:22;9.50;99.90
60027;DHT22;45891;53.006;6.512;2023-03-21T07:57:48;9.60;99.90
60027;DHT22;45891;53.006;6.512;2023-03-21T08:00:16;9.50;99.90
60027;DHT22;45891;53.006;6.512;2023-03-21T08:02:51;9.50;99.90
60027;DHT22;45891;53.006;6.512;2023-03-21T08:05:20;9.50;99.90
60027;DHT22;45891;53.006;6.512;2023-03-21T08:07:46;9.50;99.90
60027;DHT22;45891;53.006;6.512;2023-03-21T08:10:12;9.50;99.90
60027;DHT22;45891;53.006;6.512;2023-03-21T08:12:38;9.50;99.90
60027;DHT22;45891;53.006;6.512;2023-03-21T08:15:04;9.50;99.90
60027;DHT22;45891;53.006;6.512;2023-03-21T08:17:30;9.50;99.90
60027;DHT22;45891;53.006;6.512;2023-03-21T08:19:56;9.50;99.90
60027;DHT22;45891;53.006;6.512;2023-03-21T08:22:22;9.50;99.90
60027;DHT22;45891;53.006;6.512;2023-03-21T08:24:48;9.50;99.90
60027;DHT22;45891;53.006;6.512;2023-03-21T08:27:13;9.40;99.90
60027;DHT22;45891;53.006;6.512;2023-03-21T08:29:40;9.40;99.90
60027;DHT22;45891;53.006;6.512;2023-03-21T08:32:07;9.50;99.90
60027;DHT22;45891;53.006;6.512;2023-03-21T08:34:33;9.50;99.90
60027;DHT22;45891;53.006;6.512;2023-03-21T08:36:59;9.50;99.90
60027;DHT22;45891;53.006;6.512;2023-03-21T08:39:25;9.50;99.90
60027;DHT22;45891;53.006;6.512;2023-03-21T08:41:51;9.50;99.90
60027;DHT22;45891;53.006;6.512;2023-03-21T08:44:18;9.50;99.90
60027;DHT22;45891;53.006;6.512;2023-03-21T08:46:44;9.60;99.90
60027;DHT22;45891;53.006;6.512;2023-03-21T08:49:10;9.60;99.90
60027;DHT22;45891;53.006;6.512;2023-03-21T08:51:37;9.60;99.90
60027;DHT22;45891;53.006;6.512;2023-03-21T08:54:03;9.70;99.90
60027;DHT22;45891;53.006;6.512;2023-03-21T08:56:29;9.70;99.90
60027;DHT22;45891;53.006;6.512;2023-03-21T08:58:55;9.70;99.90
60027;DHT22;45891;53.006;6.512;2023-03-21T09:01:21;9.70;99.90
60027;DHT22;45891;53.006;6.512;2023-03-21T09:03:47;9.70;99.90
60027;DHT22;45891;53.006;6.512;2023-03-21T09:06:12;9.70;99.90
60027;DHT22;45891;53.006;6.512;2023-03-21T09:08:39;9.70;99.90
60027;DHT22;45891;53.006;6.512;2023-03-21T09:11:07;9.70;99.90
60027;DHT22;45891;53.006;6.512;2023-03-21T09:13:33;9.70;99.90
60027;DHT22;45891;53.006;6.512;2023-03-21T09:15:59;9.70;99.90
60027;DHT22;45891;53.006;6.512;2023-03-21T09:18:28;9.70;99.90
60027;DHT22;45891;53.006;6.512;2023-03-21T09:21:24;9.70;99.90
60027;DHT22;45891;53.006;6.512;2023-03-21T09:23:52;9.60;99.90
60027;DHT22;45891;53.006;6.512;2023-03-21T09:26:20;9.60;99.90
60027;DHT22;45891;53.006;6.512;2023-03-21T09:28:46;9.60;99.90
60027;DHT22;45891;53.006;6.512;2023-03-21T09:31:12;9.50;99.90
60027;DHT22;45891;53.006;6.512;2023-03-21T09:33:41;9.60;99.90
60027;DHT22;45891;53.006;6.512;2023-03-21T09:36:08;9.50;99.90
60027;DHT22;45891;53.006;6.512;2023-03-21T09:38:39;9.60;99.90
60027;DHT22;45891;53.006;6.512;2023-03-21T09:41:26;9.60;99.90
60027;DHT22;45891;53.006;6.512;2023-03-21T09:44:04;9.50;99.90
60027;DHT22;45891;53.006;6.512;2023-03-21T09:49:14;9.40;99.90
60027;DHT22;45891;53.006;6.512;2023-03-21T09:51:43;9.50;99.90
60027;DHT22;45891;53.006;6.512;2023-03-21T09:54:34;9.40;99.90
60027;DHT22;45891;53.006;6.512;2023-03-21T09:57:10;9.50;99.90
60027;DHT22;45891;53.006;6.512;2023-03-21T09:59:39;9.50;99.90
60027;DHT22;45891;53.006;6.512;2023-03-21T10:02:14;9.50;99.90
60027;DHT22;45891;53.006;6.512;2023-03-21T10:04:43;9.50;99.90
60027;DHT22;45891;53.006;6.512;2023-03-21T10:07:11;9.50;99.90
60027;DHT22;45891;53.006;6.512;2023-03-21T10:09:42;9.50;99.90
60027;DHT22;45891;53.006;6.512;2023-03-21T10:12:19;9.60;99.90
60027;DHT22;45891;53.006;6.512;2023-03-21T10:14:49;9.50;99.90
60027;DHT22;45891;53.006;6.512;2023-03-21T10:19:45;9.60;99.90
60027;DHT22;45891;53.006;6.512;2023-03-21T10:22:11;9.60;99.90
60027;DHT22;45891;53.006;6.512;2023-03-21T10:24:37;9.70;99.90
60027;DHT22;45891;53.006;6.512;2023-03-21T10:27:03;9.70;99.90
60027;DHT22;45891;53.006;6.512;2023-03-21T10:29:42;9.70;99.90
60027;DHT22;45891;53.006;6.512;2023-03-21T10:32:09;9.70;99.90
60027;DHT22;45891;53.006;6.512;2023-03-21T10:34:45;9.70;99.90
60027;DHT22;45891;53.006;6.512;2023-03-21T10:37:12;9.70;99.90
60027;DHT22;45891;53.006;6.512;2023-03-21T10:39:39;9.70;99.90
60027;DHT22;45891;53.006;6.512;2023-03-21T10:42:08;9.80;99.90
60027;DHT22;45891;53.006;6.512;2023-03-21T10:44:40;9.80;99.90
60027;DHT22;45891;53.006;6.512;2023-03-21T10:47:11;9.80;99.90
60027;DHT22;45891;53.006;6.512;2023-03-21T10:49:44;9.90;99.90
60027;DHT22;45891;53.006;6.512;2023-03-21T10:52:11;9.90;99.90
60027;DHT22;45891;53.006;6.512;2023-03-21T10:54:38;10.00;99.90
60027;DHT22;45891;53.006;6.512;2023-03-21T10:57:07;10.10;99.90
60027;DHT22;45891;53.006;6.512;2023-03-21T10:59:42;10.20;99.90
60027;DHT22;45891;53.006;6.512;2023-03-21T11:02:15;10.30;99.90
60027;DHT22;45891;53.006;6.512;2023-03-21T11:04:42;10.40;99.90
60027;DHT22;45891;53.006;6.512;2023-03-21T11:07:10;10.50;99.90
60027;DHT22;45891;53.006;6.512;2023-03-21T11:12:12;10.80;99.90
60027;DHT22;45891;53.006;6.512;2023-03-21T11:14:40;10.90;99.90
60027;DHT22;45891;53.006;6.512;2023-03-21T11:17:17;10.90;99.90
60027;DHT22;45891;53.006;6.512;2023-03-21T11:19:47;10.70;99.90
60027;DHT22;45891;53.006;6.512;2023-03-21T11:22:13;10.90;99.90
60027;DHT22;45891;53.006;6.512;2023-03-21T11:24:48;10.90;99.90
60027;DHT22;45891;53.006;6.512;2023-03-21T11:27:15;11.00;99.90
60027;DHT22;45891;53.006;6.512;2023-03-21T11:29:48;11.00;99.90
60027;DHT22;45891;53.006;6.512;2023-03-21T11:35:14;11.20;99.90
60027;DHT22;45891;53.006;6.512;2023-03-21T11:37:43;11.20;99.90
60027;DHT22;45891;53.006;6.512;2023-03-21T11:42:45;11.40;99.90
60027;DHT22;45891;53.006;6.512;2023-03-21T11:45:14;11.30;99.90
60027;DHT22;45891;53.006;6.512;2023-03-21T11:47:40;11.40;99.90
60027;DHT22;45891;53.006;6.512;2023-03-21T11:50:13;11.40;99.90
60027;DHT22;45891;53.006;6.512;2023-03-21T11:52:42;11.40;99.90
60027;DHT22;45891;53.006;6.512;2023-03-21T11:55:25;11.50;99.90
60027;DHT22;45891;53.006;6.512;2023-03-21T12:03:25;11.40;99.90
60027;DHT22;45891;53.006;6.512;2023-03-21T12:05:57;11.40;99.90
60027;DHT22;45891;53.006;6.512;2023-03-21T12:11:47;11.40;99.90
60027;DHT22;45891;53.006;6.512;2023-03-21T12:13:55;11.40;99.90
60027;DHT22;45891;53.006;6.512;2023-03-21T12:21:39;11.40;99.90
60027;DHT22;45891;53.006;6.512;2023-03-21T12:26:40;11.30;99.90
60027;DHT22;45891;53.006;6.512;2023-03-21T12:32:05;11.20;99.90
60027;DHT22;45891;53.006;6.512;2023-03-21T12:34:43;11.20;99.90
60027;DHT22;45891;53.006;6.512;2023-03-21T12:37:16;11.20;99.90
60027;DHT22;45891;53.006;6.512;2023-03-21T12:39:46;11.10;99.90
60027;DHT22;45891;53.006;6.512;2023-03-21T12:47:53;11.10;99.90
60027;DHT22;45891;53.006;6.512;2023-03-21T12:50:31;11.10;99.90
60027;DHT22;45891;53.006;6.512;2023-03-21T12:55:46;11.20;99.90
60027;DHT22;45891;53.006;6.512;2023-03-21T12:58:16;11.20;99.90
60027;DHT22;45891;53.006;6.512;2023-03-21T13:00:48;11.20;99.90
60027;DHT22;45891;53.006;6.512;2023-03-21T13:03:20;11.20;99.90
60027;DHT22;45891;53.006;6.512;2023-03-21T13:10:44;11.30;99.90
60027;DHT22;45891;53.006;6.512;2023-03-21T13:21:00;12.40;99.90
60027;DHT22;45891;53.006;6.512;2023-03-21T13:23:34;12.40;99.90
60027;DHT22;45891;53.006;6.512;2023-03-21T13:26:01;12.40;99.90
60027;DHT22;45891;53.006;6.512;2023-03-21T13:28:28;12.30;99.90
60027;DHT22;45891;53.006;6.512;2023-03-21T13:31:29;12.20;99.90
60027;DHT22;45891;53.006;6.512;2023-03-21T13:33:48;12.30;99.90
60027;DHT22;45891;53.006;6.512;2023-03-21T13:36:15;12.20;99.90
60027;DHT22;45891;53.006;6.512;2023-03-21T13:38:47;12.30;99.90
60027;DHT22;45891;53.006;6.512;2023-03-21T13:41:16;12.20;99.90
60027;DHT22;45891;53.006;6.512;2023-03-21T13:46:12;12.40;99.90
60027;DHT22;45891;53.006;6.512;2023-03-21T13:51:07;12.40;99.90
60027;DHT22;45891;53.006;6.512;2023-03-21T13:56:01;12.20;99.90
60027;DHT22;45891;53.006;6.512;2023-03-21T13:58:33;12.30;99.90
60027;DHT22;45891;53.006;6.512;2023-03-21T14:01:25;12.20;99.90
60027;DHT22;45891;53.006;6.512;2023-03-21T14:03:46;12.40;99.90
60027;DHT22;45891;53.006;6.512;2023-03-21T14:06:13;12.70;99.90
60027;DHT22;45891;53.006;6.512;2023-03-21T14:08:42;12.90;99.90
60027;DHT22;45891;53.006;6.512;2023-03-21T14:11:11;13.00;99.90
60027;DHT22;45891;53.006;6.512;2023-03-21T14:13:42;13.30;99.90
60027;DHT22;45891;53.006;6.512;2023-03-21T14:16:13;13.60;99.90
60027;DHT22;45891;53.006;6.512;2023-03-21T14:18:43;14.10;99.90
60027;DHT22;45891;53.006;6.512;2023-03-21T14:21:19;14.20;99.90
60027;DHT22;45891;53.006;6.512;2023-03-21T14:23:45;14.30;99.90
60027;DHT22;45891;53.006;6.512;2023-03-21T14:26:12;14.20;99.90
60027;DHT22;45891;53.006;6.512;2023-03-21T14:28:41;14.30;99.90
60027;DHT22;45891;53.006;6.512;2023-03-21T14:31:11;13.80;99.90
60027;DHT22;45891;53.006;6.512;2023-03-21T14:33:38;13.50;99.90
60027;DHT22;45891;53.006;6.512;2023-03-21T14:36:08;13.20;99.90
60027;DHT22;45891;53.006;6.512;2023-03-21T14:38:35;12.90;99.90
60027;DHT22;45891;53.006;6.512;2023-03-21T14:41:02;12.80;99.90
60027;DHT22;45891;53.006;6.512;2023-03-21T14:43:28;12.90;99.90
60027;DHT22;45891;53.006;6.512;2023-03-21T14:45:56;12.80;99.90
60027;DHT22;45891;53.006;6.512;2023-03-21T14:48:33;12.80;99.90
60027;DHT22;45891;53.006;6.512;2023-03-21T14:51:00;13.00;99.90
60027;DHT22;45891;53.006;6.512;2023-03-21T14:53:27;13.00;99.90
60027;DHT22;45891;53.006;6.512;2023-03-21T14:55:58;13.00;99.90
60027;DHT22;45891;53.006;6.512;2023-03-21T14:58:25;13.10;99.90
60027;DHT22;45891;53.006;6.512;2023-03-21T15:00:51;13.00;99.90
60027;DHT22;45891;53.006;6.512;2023-03-21T15:03:19;12.80;99.90
60027;DHT22;45891;53.006;6.512;2023-03-21T15:05:46;12.80;99.90
60027;DHT22;45891;53.006;6.512;2023-03-21T15:10:39;12.70;99.90
60027;DHT22;45891;53.006;6.512;2023-03-21T15:13:12;12.70;99.90
60027;DHT22;45891;53.006;6.512;2023-03-21T15:15:39;12.70;99.90
60027;DHT22;45891;53.006;6.512;2023-03-21T15:18:05;12.60;99.90
60027;DHT22;45891;53.006;6.512;2023-03-21T15:20:34;12.60;99.90
60027;DHT22;45891;53.006;6.512;2023-03-21T15:23:02;12.60;99.90
60027;DHT22;45891;53.006;6.512;2023-03-21T15:25:30;12.50;99.90
60027;DHT22;45891;53.006;6.512;2023-03-21T15:27:57;12.50;99.90
60027;DHT22;45891;53.006;6.512;2023-03-21T15:30:28;12.40;99.90
60027;DHT22;45891;53.006;6.512;2023-03-21T15:32:55;12.40;99.90
60027;DHT22;45891;53.006;6.512;2023-03-21T15:35:25;12.40;99.90
60027;DHT22;45891;53.006;6.512;2023-03-21T15:37:52;12.50;99.90
60027;DHT22;45891;53.006;6.512;2023-03-21T15:40:20;12.50;99.90
60027;DHT22;45891;53.006;6.512;2023-03-21T15:42:47;12.40;99.90
60027;DHT22;45891;53.006;6.512;2023-03-21T15:45:14;12.40;99.90
60027;DHT22;45891;53.006;6.512;2023-03-21T15:47:53;12.40;99.90
60027;DHT22;45891;53.006;6.512;2023-03-21T15:52:49;12.40;99.90
60027;DHT22;45891;53.006;6.512;2023-03-21T15:55:16;12.40;99.90
60027;DHT22;45891;53.006;6.512;2023-03-21T15:57:46;12.30;99.90
60027;DHT22;45891;53.006;6.512;2023-03-21T16:00:21;12.30;99.90
60027;DHT22;45891;53.006;6.512;2023-03-21T16:02:54;12.30;99.90
60027;DHT22;45891;53.006;6.512;2023-03-21T16:07:50;12.30;99.90
60027;DHT22;45891;53.006;6.512;2023-03-21T16:10:29;12.30;99.90
60027;DHT22;45891;53.006;6.512;2023-03-21T16:12:56;12.30;99.90
60027;DHT22;45891;53.006;6.512;2023-03-21T16:15:23;12.30;99.90
60027;DHT22;45891;53.006;6.512;2023-03-21T16:17:53;12.30;99.90
60027;DHT22;45891;53.006;6.512;2023-03-21T16:20:22;12.30;99.90
60027;DHT22;45891;53.006;6.512;2023-03-21T16:22:48;12.30;99.90
60027;DHT22;45891;53.006;6.512;2023-03-21T16:25:14;12.30;99.90
60027;DHT22;45891;53.006;6.512;2023-03-21T16:27:40;12.30;99.90
60027;DHT22;45891;53.006;6.512;2023-03-21T16:30:07;12.20;99.90
60027;DHT22;45891;53.006;6.512;2023-03-21T16:32:33;12.20;99.90
60027;DHT22;45891;53.006;6.512;2023-03-21T16:34:59;12.20;99.90
60027;DHT22;45891;53.006;6.512;2023-03-21T16:37:25;12.10;99.90
60027;DHT22;45891;53.006;6.512;2023-03-21T16:39:51;12.10;99.90
60027;DHT22;45891;53.006;6.512;2023-03-21T16:42:17;12.10;99.90
60027;DHT22;45891;53.006;6.512;2023-03-21T16:44:43;12.10;99.90
60027;DHT22;45891;53.006;6.512;2023-03-21T16:47:16;12.00;99.90
60027;DHT22;45891;53.006;6.512;2023-03-21T16:49:43;11.90;99.90
60027;DHT22;45891;53.006;6.512;2023-03-21T16:52:10;11.70;99.90
60027;DHT22;45891;53.006;6.512;2023-03-21T16:54:37;11.60;99.90
60027;DHT22;45891;53.006;6.512;2023-03-21T16:57:03;11.40;99.90
60027;DHT22;45891;53.006;6.512;2023-03-21T16:59:29;11.30;99.90
60027;DHT22;45891;53.006;6.512;2023-03-21T17:01:55;11.10;99.90
60027;DHT22;45891;53.006;6.512;2023-03-21T17:04:21;11.10;99.90
60027;DHT22;45891;53.006;6.512;2023-03-21T17:06:49;11.00;99.90
60027;DHT22;45891;53.006;6.512;2023-03-21T17:09:17;11.00;99.90
60027;DHT22;45891;53.006;6.512;2023-03-21T17:11:43;11.00;99.90
60027;DHT22;45891;53.006;6.512;2023-03-21T17:14:10;11.00;99.90
60027;DHT22;45891;53.006;6.512;2023-03-21T17:16:36;11.00;99.90
60027;DHT22;45891;53.006;6.512;2023-03-21T17:19:09;11.00;99.90
60027;DHT22;45891;53.006;6.512;2023-03-21T17:21:35;11.00;99.90
60027;DHT22;45891;53.006;6.512;2023-03-21T17:24:01;11.00;99.90
60027;DHT22;45891;53.006;6.512;2023-03-21T17:26:27;10.90;99.90